Newburg, Pennsylvania
Current Conditions -  °F | °C
As of 7:53 PM on Saturday 25 Oct 2014 (Local Time) from KHGR Reporting Station
Clear Clear  
Wind Chill: 65°   Ceiling: Unl
Heat Index: 65°   Visibility: 10mi
Dew Point: 45°   Wind: 0mph
Humidity: 48%   Direction: NA
Pressure: 29.74"   Gusts: NA
Location:  40.14°N, 77.55°W
Report Text: KHGR 252353Z AUTO 00000KT 10SM CLR 18/07 A2974 RMK AO2 SLP078 T01830072 10222 20183 53002
Loading
Personal Weather Stations






























Interactive Weather Map
Tropical Storm Tracking
New forecast layout! Learn more

10-Day Weather Forecast

Advertisements
Track Severe Weather on mobile